createdAt,value
2018-01-28T00:00:41.023Z,95.47
2018-01-28T00:01:41.967Z,95.58
2018-01-28T00:02:39.210Z,95.59
2018-01-28T00:03:39.023Z,95.56
2018-01-28T00:04:39.695Z,95.46
2018-01-28T00:05:39.369Z,95.4
2018-01-28T00:06:40.957Z,95.48
2018-01-28T00:07:40.453Z,95.48
2018-01-28T00:08:40.030Z,95.45
2018-01-28T00:09:39.390Z,95.46
2018-01-28T00:10:39.925Z,95.44
2018-01-28T00:11:39.884Z,95.38
2018-01-28T00:12:40.901Z,95.53
2018-01-28T00:13:39.285Z,95.48
2018-01-28T00:14:39.428Z,95.5
2018-01-28T00:15:39.209Z,95.45
2018-01-28T00:16:39.070Z,95.53
2018-01-28T00:17:39.238Z,95.55
2018-01-28T00:18:40.231Z,95.59
2018-01-28T00:19:39.851Z,95.54
2018-01-28T00:20:39.345Z,95.67
2018-01-28T00:21:39.888Z,95.64
2018-01-28T00:22:39.594Z,95.82
2018-01-28T00:23:39.378Z,95.59
2018-01-28T00:24:39.451Z,95.35
2018-01-28T00:25:39.392Z,95.3
2018-01-28T00:26:39.580Z,95.35
2018-01-28T00:27:39.511Z,95.48
2018-01-28T00:28:39.040Z,95.54
2018-01-28T00:29:39.102Z,95.44
2018-01-28T00:30:39.108Z,95.42
2018-01-28T00:31:39.096Z,95.34
2018-01-28T00:32:39.171Z,95.37
2018-01-28T00:33:39.117Z,95.33
2018-01-28T00:34:39.208Z,95.32
2018-01-28T00:35:39.247Z,95.2
2018-01-28T00:36:39.150Z,95.28
2018-01-28T00:37:39.148Z,95.39
2018-01-28T00:38:39.017Z,95.39
2018-01-28T00:39:39.085Z,95.27
2018-01-28T00:40:39.023Z,95.32
2018-01-28T00:41:39.104Z,95.3
2018-01-28T00:42:39.100Z,95.23
2018-01-28T00:43:39.096Z,95.2
2018-01-28T00:44:39.205Z,95.16
2018-01-28T00:45:39.184Z,95.12
2018-01-28T00:46:39.105Z,95.21
2018-01-28T00:47:39.186Z,95.22
2018-01-28T00:48:40.614Z,95.25
2018-01-28T00:49:39.098Z,95.26
2018-01-28T00:50:39.217Z,95.26
2018-01-28T00:51:39.195Z,95.16
2018-01-28T00:52:39.257Z,95.32
2018-01-28T00:53:39.209Z,95.21
2018-01-28T00:54:39.199Z,95.31
2018-01-28T00:55:39.189Z,95.4
2018-01-28T00:56:39.173Z,95.27
2018-01-28T00:57:39.003Z,95.48
2018-01-28T00:58:39.039Z,95.47
2018-01-28T00:59:39.169Z,95.4
2018-01-28T01:00:39.164Z,95.14
2018-01-28T01:01:39.256Z,95.11
2018-01-28T01:02:39.295Z,95.07
2018-01-28T01:03:39.087Z,95.01
2018-01-28T01:04:39.164Z,95.12
2018-01-28T01:05:39.200Z,94.91
2018-01-28T01:06:39.142Z,94.83
2018-01-28T01:07:39.171Z,95.05
2018-01-28T01:08:39.166Z,95.07
2018-01-28T01:09:39.230Z,94.74
2018-01-28T01:10:39.309Z,94.57
2018-01-28T01:11:40.567Z,94.9
2018-01-28T01:12:39.899Z,94.92
2018-01-28T01:13:41.669Z,94.69
2018-01-28T01:14:40.086Z,94.65
2018-01-28T01:15:41.608Z,94.34
2018-01-28T01:16:39.540Z,94.09
2018-01-28T01:17:40.059Z,94
2018-01-28T01:18:39.100Z,93.59
2018-01-28T01:19:39.679Z,93.59
2018-01-28T01:20:40.009Z,93.46
2018-01-28T01:21:40.291Z,93.18
2018-01-28T01:22:39.425Z,93.36
2018-01-28T01:23:39.298Z,93.26
2018-01-28T01:24:39.367Z,92.96
2018-01-28T01:25:39.333Z,92.79
2018-01-28T01:26:40.580Z,92.76
2018-01-28T01:27:39.510Z,92.84
2018-01-28T01:28:40.059Z,92.55
2018-01-28T01:29:39.042Z,92.61
2018-01-28T01:30:39.428Z,92.41
2018-01-28T01:31:40.932Z,92.28
2018-01-28T01:32:41.212Z,91.93
2018-01-28T01:33:39.594Z,92.01
2018-01-28T01:34:39.212Z,91.52
2018-01-28T01:35:39.866Z,91.64
2018-01-28T01:36:40.185Z,91.91
2018-01-28T01:37:39.615Z,91.87
2018-01-28T01:38:40.133Z,92.05
2018-01-28T01:39:39.543Z,92.05
2018-01-28T01:40:39.256Z,92.04
2018-01-28T01:41:39.418Z,92.18
2018-01-28T01:42:39.955Z,92.1
2018-01-28T01:43:39.293Z,92.22
2018-01-28T01:44:39.338Z,92.2
2018-01-28T01:45:39.560Z,92.07
2018-01-28T01:46:39.448Z,91.89
2018-01-28T01:47:39.815Z,91.8
2018-01-28T01:48:39.347Z,91.82
2018-01-28T01:49:39.355Z,91.79
2018-01-28T01:50:39.537Z,91.58
2018-01-28T01:51:39.437Z,91.36
2018-01-28T01:52:39.496Z,91.48
2018-01-28T01:53:40.105Z,91.22
2018-01-28T01:54:40.164Z,91.3
2018-01-28T01:55:40.731Z,91.09
2018-01-28T01:56:40.074Z,91.14
2018-01-28T01:57:39.336Z,91.4
2018-01-28T01:58:39.092Z,91.16
2018-01-28T01:59:39.584Z,91.19
2018-01-28T02:00:39.579Z,91.22
2018-01-28T02:01:40.054Z,91.29
2018-01-28T02:02:39.585Z,91.15
2018-01-28T02:03:39.255Z,90.95
2018-01-28T02:04:39.502Z,90.94
2018-01-28T02:05:40.760Z,90.95
2018-01-28T02:06:40.498Z,90.76
2018-01-28T02:07:39.645Z,90.94
2018-01-28T02:08:39.363Z,90.6
2018-01-28T02:09:39.292Z,90.9
2018-01-28T02:10:40.518Z,90.75
2018-01-28T02:11:39.510Z,90.64
2018-01-28T02:12:39.232Z,90.68
2018-01-28T02:13:41.011Z,90.36
2018-01-28T02:14:40.236Z,90.16
2018-01-28T02:15:41.002Z,89.98
2018-01-28T02:16:39.296Z,90.11
2018-01-28T02:17:39.446Z,90.01
2018-01-28T02:18:39.536Z,90.2
2018-01-28T02:19:40.811Z,90.06
2018-01-28T02:20:40.823Z,90.09
2018-01-28T02:21:39.897Z,90.16
2018-01-28T02:22:40.075Z,90.21
2018-01-28T02:23:39.797Z,90.21
2018-01-28T02:24:41.289Z,90.28
2018-01-28T02:25:39.952Z,90.11
2018-01-28T02:26:39.904Z,89.82
2018-01-28T02:27:40.194Z,89.73
2018-01-28T02:28:39.615Z,89.65
2018-01-28T02:29:39.377Z,89.56
2018-01-28T02:30:39.937Z,89.75
2018-01-28T02:31:39.475Z,89.74
2018-01-28T02:32:39.258Z,89.73
2018-01-28T02:33:39.306Z,89.23
2018-01-28T02:34:39.404Z,89.49
2018-01-28T02:35:39.173Z,89.32
2018-01-28T02:36:40.158Z,89.59
2018-01-28T02:37:41.213Z,89.58
2018-01-28T02:38:39.294Z,89.41
2018-01-28T02:39:40.096Z,89.27
2018-01-28T02:40:39.567Z,89.25
2018-01-28T02:41:39.717Z,88.89
2018-01-28T02:42:39.212Z,89.07
2018-01-28T02:43:40.816Z,88.95
2018-01-28T02:44:40.514Z,89.27
2018-01-28T02:45:39.428Z,89.48
2018-01-28T02:46:40.739Z,89.6
2018-01-28T02:47:40.875Z,89.17
2018-01-28T02:48:39.927Z,89.45
2018-01-28T02:49:39.518Z,88.82
2018-01-28T02:50:41.591Z,88.99
2018-01-28T02:51:39.827Z,89.16
2018-01-28T02:52:41.286Z,89.49
2018-01-28T02:53:41.222Z,89.38
2018-01-28T02:54:39.714Z,89.18
2018-01-28T02:55:39.771Z,89.38
2018-01-28T02:56:40.404Z,89.52
2018-01-28T02:57:41.600Z,89.22
2018-01-28T02:58:40.679Z,89.53
2018-01-28T02:59:40.227Z,89.55
2018-01-28T03:00:39.730Z,89.38
2018-01-28T03:01:40.093Z,89.23
2018-01-28T03:02:42.523Z,89.25
2018-01-28T03:03:43.146Z,88.64
2018-01-28T03:04:39.733Z,88.96
2018-01-28T03:05:40.341Z,89.11
2018-01-28T03:06:39.881Z,88.85
2018-01-28T03:07:39.857Z,88.77
2018-01-28T03:08:39.955Z,88.51
2018-01-28T03:09:39.847Z,88.57
2018-01-28T03:10:40.331Z,88.58
2018-01-28T03:11:40.701Z,88.7
2018-01-28T03:12:40.421Z,88.98
2018-01-28T03:13:39.937Z,88.98
2018-01-28T03:14:40.779Z,88.95
2018-01-28T03:15:39.481Z,88.92
2018-01-28T03:16:39.583Z,89.28
2018-01-28T03:17:39.477Z,89.26
2018-01-28T03:18:39.798Z,89.43
2018-01-28T03:19:39.517Z,89.2
2018-01-28T03:20:40.211Z,89.31
2018-01-28T03:21:39.666Z,89.21
2018-01-28T03:22:39.646Z,89.35
2018-01-28T03:23:39.808Z,89.54
2018-01-28T03:24:40.326Z,89.74
2018-01-28T03:25:41.009Z,89.64
2018-01-28T03:26:41.191Z,89.65
2018-01-28T03:27:40.034Z,89.63
2018-01-28T03:28:40.636Z,89.44
2018-01-28T03:29:43.357Z,89.69
2018-01-28T03:30:39.570Z,89.62
2018-01-28T03:31:40.225Z,89.78
2018-01-28T03:32:39.683Z,89.75
2018-01-28T03:33:39.853Z,89.77
2018-01-28T03:34:40.012Z,89.85
2018-01-28T03:35:41.317Z,89.68
2018-01-28T03:36:39.873Z,89.86
2018-01-28T03:37:39.930Z,89.74
2018-01-28T03:38:40.033Z,89.74
2018-01-28T03:39:40.711Z,89.78
2018-01-28T03:40:39.825Z,89.78
2018-01-28T03:41:40.697Z,89.81
2018-01-28T03:42:39.901Z,89.91
2018-01-28T03:43:40.112Z,90.07
2018-01-28T03:44:41.578Z,89.97
2018-01-28T03:45:39.796Z,89.97
2018-01-28T03:46:39.745Z,89.93
2018-01-28T03:47:39.733Z,89.93
2018-01-28T03:48:39.829Z,90.07
2018-01-28T03:49:40.132Z,90.08
2018-01-28T03:50:39.819Z,89.74
2018-01-28T03:51:41.403Z,89.97
2018-01-28T03:52:48.137Z,90.03
2018-01-28T03:53:41.423Z,89.92
2018-01-28T03:54:41.063Z,89.88
2018-01-28T03:55:39.931Z,89.81
2018-01-28T03:56:41.087Z,89.9
2018-01-28T03:57:40.505Z,89.92
2018-01-28T03:58:40.282Z,90.03
2018-01-28T03:59:40.565Z,89.84
2018-01-28T04:00:40.280Z,89.78
2018-01-28T04:01:40.443Z,89.79
2018-01-28T04:02:40.016Z,89.6
2018-01-28T04:03:40.094Z,89.46
2018-01-28T04:04:40.009Z,89.34
2018-01-28T04:05:40.700Z,89.57
2018-01-28T04:06:40.013Z,89.42
2018-01-28T04:07:39.973Z,89.55
2018-01-28T04:08:40.464Z,89.59
2018-01-28T04:09:40.066Z,89.51
2018-01-28T04:10:40.241Z,89.65
2018-01-28T04:11:40.063Z,89.59
2018-01-28T04:12:40.532Z,89.79
2018-01-28T04:13:39.896Z,89.68
2018-01-28T04:14:39.770Z,89.57
2018-01-28T04:15:40.074Z,89.74
2018-01-28T04:16:40.172Z,89.62
2018-01-28T04:17:41.096Z,89.4
2018-01-28T04:18:39.820Z,89.47
2018-01-28T04:19:41.659Z,89.54
2018-01-28T04:20:39.891Z,89.56
2018-01-28T04:21:40.119Z,89.41
2018-01-28T04:22:39.998Z,89.32
2018-01-28T04:23:40.315Z,89.27
2018-01-28T04:24:40.040Z,89.2
2018-01-28T04:25:39.720Z,88.93
2018-01-28T04:26:39.945Z,88.7
2018-01-28T04:27:39.791Z,88.79
2018-01-28T04:28:39.818Z,88.68
2018-01-28T04:29:40.218Z,88.62
2018-01-28T04:30:42.323Z,88.78
2018-01-28T04:31:40.189Z,88.75
2018-01-28T04:32:40.081Z,88.38
2018-01-28T04:33:40.128Z,88.38
2018-01-28T04:34:40.044Z,88.51
2018-01-28T04:35:40.244Z,88.34
2018-01-28T04:36:40.252Z,88.25
2018-01-28T04:37:39.977Z,88.15
2018-01-28T04:38:39.767Z,88.08
2018-01-28T04:39:40.357Z,88
2018-01-28T04:40:39.956Z,87.6
2018-01-28T04:41:39.878Z,87.48
2018-01-28T04:42:40.366Z,87.3
2018-01-28T04:43:40.185Z,87.2
2018-01-28T04:44:40.019Z,87.26
2018-01-28T04:45:40.325Z,87.25
2018-01-28T04:46:41.206Z,87.25
2018-01-28T04:47:39.909Z,87.19
2018-01-28T04:48:40.890Z,87.46
2018-01-28T04:49:39.898Z,87.57
2018-01-28T04:50:39.953Z,87.37
2018-01-28T04:51:41.414Z,86.87
2018-01-28T04:52:40.117Z,86.47
2018-01-28T04:53:40.447Z,86.29
2018-01-28T04:54:39.807Z,86.21
2018-01-28T04:55:41.341Z,86.37
2018-01-28T04:56:40.642Z,86.48
2018-01-28T04:57:39.947Z,86.45
2018-01-28T04:58:40.137Z,86.05
2018-01-28T04:59:39.993Z,86.27
2018-01-28T05:00:40.674Z,86.17
2018-01-28T05:01:41.267Z,86.14
2018-01-28T05:02:39.772Z,86.13
2018-01-28T05:03:40.210Z,86.45
2018-01-28T05:04:40.139Z,85.96
2018-01-28T05:05:40.066Z,85.29
2018-01-28T05:06:40.195Z,85.88
2018-01-28T05:07:40.081Z,85.91
2018-01-28T05:08:40.097Z,86.18
2018-01-28T05:09:40.228Z,85.91
2018-01-28T05:10:40.309Z,85.94
2018-01-28T05:11:40.043Z,85.8
2018-01-28T05:12:39.935Z,85.69
2018-01-28T05:13:39.906Z,85.92
2018-01-28T05:14:40.502Z,85.94
2018-01-28T05:15:39.947Z,85.73
2018-01-28T05:16:39.784Z,85.14
2018-01-28T05:17:40.142Z,85.29
2018-01-28T05:18:39.796Z,85.86
2018-01-28T05:19:40.720Z,85.82
2018-01-28T05:20:39.840Z,86.01
2018-01-28T05:21:39.802Z,85.74
2018-01-28T05:22:40.113Z,85.59
2018-01-28T05:23:39.881Z,85.78
2018-01-28T05:24:40.095Z,85.49
2018-01-28T05:25:40.024Z,85.69
2018-01-28T05:26:40.226Z,85.67
2018-01-28T05:27:40.505Z,85.36
2018-01-28T05:28:39.908Z,85.25
2018-01-28T05:29:40.654Z,84.72
2018-01-28T05:30:39.855Z,85.11
2018-01-28T05:31:40.727Z,85.21
2018-01-28T05:32:39.885Z,85.57
2018-01-28T05:33:40.200Z,85.43
2018-01-28T05:34:39.921Z,85.18
2018-01-28T05:35:40.512Z,85.37
2018-01-28T05:36:39.996Z,84.83
2018-01-28T05:37:40.053Z,85.04
2018-01-28T05:38:40.016Z,84.55
2018-01-28T05:39:39.996Z,84.82
2018-01-28T05:40:39.730Z,84.91
2018-01-28T05:41:39.953Z,84.88
2018-01-28T05:42:40.888Z,84.64
2018-01-28T05:43:39.755Z,84.04
2018-01-28T05:44:40.214Z,83.89
2018-01-28T05:45:40.911Z,83.5
2018-01-28T05:46:40.539Z,83.73
2018-01-28T05:47:40.704Z,83.93
2018-01-28T05:48:40.255Z,84.23
2018-01-28T05:49:39.907Z,83.75
2018-01-28T05:50:39.722Z,83.53
2018-01-28T05:51:40.199Z,83.68
2018-01-28T05:52:39.949Z,83.98
2018-01-28T05:53:39.985Z,84.07
2018-01-28T05:54:40.181Z,83.41
2018-01-28T05:55:40.290Z,83.87
2018-01-28T05:56:40.066Z,83.71
2018-01-28T05:57:40.051Z,84.05
2018-01-28T05:58:39.881Z,84.01
2018-01-28T05:59:40.291Z,83.94
2018-01-28T06:00:40.469Z,83.61
2018-01-28T06:01:40.278Z,83.42
2018-01-28T06:02:40.154Z,83.72
2018-01-28T06:03:40.062Z,83.46
2018-01-28T06:04:40.559Z,83.61
2018-01-28T06:05:40.068Z,83.76
2018-01-28T06:06:40.789Z,83.82
2018-01-28T06:07:40.048Z,83.84
2018-01-28T06:08:39.957Z,83.34
2018-01-28T06:09:39.937Z,83.05
2018-01-28T06:10:41.194Z,83.12
2018-01-28T06:11:39.924Z,83.23
2018-01-28T06:12:40.031Z,83.03
2018-01-28T06:13:40.991Z,82.8
2018-01-28T06:14:39.931Z,82.58
2018-01-28T06:15:40.030Z,82.74
2018-01-28T06:16:43.027Z,82.85
2018-01-28T06:17:41.021Z,82.62
2018-01-28T06:18:40.952Z,82.57
2018-01-28T06:19:40.092Z,81.86
2018-01-28T06:20:39.792Z,82.34
2018-01-28T06:21:40.891Z,82.53
2018-01-28T06:22:40.872Z,82.49
2018-01-28T06:23:39.947Z,82.49
2018-01-28T06:24:40.183Z,82.59
2018-01-28T06:25:39.678Z,82.42
2018-01-28T06:26:39.894Z,82.39
2018-01-28T06:27:39.619Z,82.36
2018-01-28T06:28:39.881Z,82.21
2018-01-28T06:29:39.475Z,82.39
2018-01-28T06:30:39.755Z,82.44
2018-01-28T06:31:38.920Z,82.62
2018-01-28T06:32:39.775Z,82.54
2018-01-28T06:33:40.335Z,82.43
2018-01-28T06:34:39.706Z,82.69
2018-01-28T06:35:39.850Z,82.38
2018-01-28T06:36:39.446Z,82.48
2018-01-28T06:37:40.179Z,82.24
2018-01-28T06:38:39.446Z,82.64
2018-01-28T06:39:39.806Z,82.75
2018-01-28T06:40:39.418Z,82.34
2018-01-28T06:41:39.800Z,82.7
2018-01-28T06:42:40.123Z,82.87
2018-01-28T06:43:39.333Z,82.91
2018-01-28T06:44:40.217Z,82.72
2018-01-28T06:45:39.445Z,82.93
2018-01-28T06:46:40.036Z,82.92
2018-01-28T06:47:39.373Z,83.12
2018-01-28T06:48:40.065Z,83.35
2018-01-28T06:49:39.671Z,83.64
2018-01-28T06:50:40.293Z,83.52
2018-01-28T06:51:39.566Z,83.63
2018-01-28T06:52:39.158Z,83.41
2018-01-28T06:53:39.826Z,83.49
2018-01-28T06:54:40.290Z,83.46
2018-01-28T06:55:39.716Z,83.79
2018-01-28T06:56:39.833Z,83.59
2018-01-28T06:57:40.418Z,83.81
2018-01-28T06:58:39.491Z,83.85
2018-01-28T06:59:39.797Z,83.66
2018-01-28T07:00:40.349Z,83.96
2018-01-28T07:01:40.078Z,83.66
2018-01-28T07:02:39.578Z,83.82
2018-01-28T07:03:39.752Z,83.77
2018-01-28T07:04:40.159Z,83.54
2018-01-28T07:05:39.708Z,83.77
2018-01-28T07:06:40.264Z,84.03
2018-01-28T07:07:39.613Z,83.78
2018-01-28T07:08:40.314Z,84.07
2018-01-28T07:09:40.139Z,84.06
2018-01-28T07:10:40.340Z,83.99
2018-01-28T07:11:39.941Z,83.97
2018-01-28T07:12:40.255Z,83.78
2018-01-28T07:13:39.595Z,83.68
2018-01-28T07:14:40.162Z,83.49
2018-01-28T07:15:39.557Z,83.58
2018-01-28T07:16:39.831Z,83.65
2018-01-28T07:17:40.214Z,83.88
2018-01-28T07:18:40.565Z,83.67
2018-01-28T07:19:40.308Z,83.9
2018-01-28T07:20:39.541Z,84.03
2018-01-28T07:21:39.919Z,84.07
2018-01-28T07:22:39.113Z,84.11
2018-01-28T07:23:39.922Z,83.72
2018-01-28T07:24:39.743Z,83.57
2018-01-28T07:25:40.136Z,83.46
2018-01-28T07:26:39.655Z,83.82
2018-01-28T07:27:40.139Z,83.99
2018-01-28T07:28:40.733Z,83.93
2018-01-28T07:29:40.036Z,84.16
2018-01-28T07:30:40.285Z,84.2
2018-01-28T07:31:39.523Z,84.33
2018-01-28T07:32:40.431Z,84.27
2018-01-28T07:33:39.847Z,84
2018-01-28T07:34:40.188Z,84.12
2018-01-28T07:35:39.694Z,84.44
2018-01-28T07:36:40.151Z,84.55
2018-01-28T07:37:40.429Z,84.71
2018-01-28T07:38:39.678Z,84.29
2018-01-28T07:39:40.080Z,84.43
2018-01-28T07:40:39.516Z,84.36
2018-01-28T07:41:40.053Z,84.55
2018-01-28T07:42:40.255Z,84.48
2018-01-28T07:43:39.602Z,84.72
2018-01-28T07:44:40.320Z,84.66
2018-01-28T07:45:39.555Z,84.75
2018-01-28T07:46:40.109Z,84.93
2018-01-28T07:47:39.093Z,84.69
2018-01-28T07:48:39.950Z,84.91
2018-01-28T07:49:39.774Z,85.19
2018-01-28T07:50:39.792Z,85.5
2018-01-28T07:51:39.406Z,86.04
2018-01-28T07:52:39.027Z,85.94
2018-01-28T07:53:39.779Z,86.03
2018-01-28T07:54:40.533Z,86.26
2018-01-28T07:55:39.652Z,86.03
2018-01-28T07:56:40.249Z,86.23
2018-01-28T07:57:39.477Z,86.77
2018-01-28T07:58:39.987Z,86.7
2018-01-28T07:59:39.522Z,86.84
2018-01-28T08:00:40.126Z,86.75
2018-01-28T08:01:39.991Z,86.99
2018-01-28T08:02:40.075Z,87.36
2018-01-28T08:03:40.286Z,86.97
2018-01-28T08:04:39.966Z,86.61
2018-01-28T08:05:39.759Z,86.37
2018-01-28T08:06:40.572Z,86.65
2018-01-28T08:07:39.679Z,86.19
2018-01-28T08:08:40.156Z,86.16
2018-01-28T08:09:39.579Z,86.31
2018-01-28T08:10:40.012Z,86.3
2018-01-28T08:11:40.731Z,86.05
2018-01-28T08:12:38.938Z,86.09
2018-01-28T08:13:40.177Z,86.28
2018-01-28T08:14:39.878Z,85.85
2018-01-28T08:15:40.153Z,85.92
2018-01-28T08:16:39.057Z,85.96
2018-01-28T08:17:40.240Z,85.83
2018-01-28T08:18:39.555Z,85.85
2018-01-28T08:19:39.954Z,85.68
2018-01-28T08:20:40.016Z,85.63
2018-01-28T08:21:39.535Z,85.32
2018-01-28T08:22:39.266Z,85.63
2018-01-28T08:23:39.536Z,85.71
2018-01-28T08:24:39.292Z,86
2018-01-28T08:25:39.333Z,85.95
2018-01-28T08:26:39.384Z,85.59
2018-01-28T08:27:39.368Z,85.65
2018-01-28T08:28:39.742Z,85.59
2018-01-28T08:29:39.418Z,85.68
2018-01-28T08:30:39.352Z,85.76
2018-01-28T08:31:39.493Z,85.73
2018-01-28T08:32:39.464Z,85.45
2018-01-28T08:33:39.524Z,85.68
2018-01-28T08:34:39.352Z,85.78
2018-01-28T08:35:39.786Z,85.74
2018-01-28T08:36:39.467Z,86.27
2018-01-28T08:37:40.124Z,85.87
2018-01-28T08:38:39.339Z,86.36
2018-01-28T08:39:39.364Z,86.2
2018-01-28T08:40:39.448Z,86.2
2018-01-28T08:41:39.955Z,85.95
2018-01-28T08:42:39.468Z,85.75
2018-01-28T08:43:39.217Z,85.67
2018-01-28T08:44:39.480Z,85.76
2018-01-28T08:45:39.492Z,85.6
2018-01-28T08:46:39.459Z,85.4
2018-01-28T08:47:39.328Z,85.7
2018-01-28T08:48:39.290Z,85.78
2018-01-28T08:49:40.680Z,85.91
2018-01-28T08:50:39.282Z,85.68
2018-01-28T08:51:39.218Z,85.99
2018-01-28T08:52:40.386Z,85.48
2018-01-28T08:53:39.632Z,85.58
2018-01-28T08:54:39.400Z,85.64
2018-01-28T08:55:39.355Z,85.79
2018-01-28T08:56:40.055Z,85.95
2018-01-28T08:57:39.432Z,85.49
2018-01-28T08:58:39.643Z,85.86
2018-01-28T08:59:39.499Z,85.84
2018-01-28T09:00:40.078Z,86.16
2018-01-28T09:01:39.423Z,85.82
2018-01-28T09:02:39.403Z,85.7
2018-01-28T09:03:39.225Z,85.53
2018-01-28T09:04:39.236Z,85.67
2018-01-28T09:05:40.329Z,85.55
2018-01-28T09:06:39.492Z,85.59
2018-01-28T09:07:39.332Z,85.3
2018-01-28T09:08:39.289Z,85.61
2018-01-28T09:09:39.394Z,85.66
2018-01-28T09:10:40.291Z,85.81
2018-01-28T09:11:39.512Z,85.88
2018-01-28T09:12:39.387Z,85.71
2018-01-28T09:13:39.463Z,86.04
2018-01-28T09:14:39.354Z,85.85
2018-01-28T09:15:39.541Z,85.86
2018-01-28T09:16:39.474Z,85.93
2018-01-28T09:17:39.393Z,86.1
2018-01-28T09:18:39.491Z,86.07
2018-01-28T09:19:39.579Z,86.17
2018-01-28T09:20:39.218Z,86.24
2018-01-28T09:22:59.212Z,86.34
2018-01-28T09:23:39.753Z,86.25
2018-01-28T09:24:39.398Z,86.28
2018-01-28T09:25:40.046Z,86.36
2018-01-28T09:26:39.734Z,85.94
2018-01-28T09:27:40.092Z,86.12
2018-01-28T09:28:39.913Z,86.19
2018-01-28T09:29:39.841Z,86.57
2018-01-28T09:30:40.026Z,86.52
2018-01-28T09:31:40.286Z,86.5
2018-01-28T09:32:39.830Z,86.33
2018-01-28T09:33:40.176Z,86.22
2018-01-28T09:34:39.690Z,86.4
2018-01-28T09:35:40.620Z,86.79
2018-01-28T09:36:40.315Z,86.72
2018-01-28T09:37:39.730Z,86.31
2018-01-28T09:38:40.354Z,86.43
2018-01-28T09:39:39.675Z,86.32
2018-01-28T09:40:39.987Z,86.74
2018-01-28T09:41:40.278Z,86.23
2018-01-28T09:42:39.586Z,86.48
2018-01-28T09:43:40.071Z,86.49
2018-01-28T09:44:40.519Z,86.5
2018-01-28T09:45:40.054Z,86.62
2018-01-28T09:46:40.314Z,86.67
2018-01-28T09:47:39.631Z,86.79
2018-01-28T09:48:40.027Z,86.7
2018-01-28T09:49:39.821Z,86.87
2018-01-28T09:50:40.148Z,86.85
2018-01-28T09:51:40.034Z,86.56
2018-01-28T09:52:39.807Z,86.82
2018-01-28T09:53:40.184Z,87.03
2018-01-28T09:54:39.832Z,87.09
2018-01-28T09:55:40.278Z,87.16
2018-01-28T09:56:40.343Z,87.22
2018-01-28T09:57:39.846Z,86.98
2018-01-28T09:58:40.389Z,86.99
2018-01-28T09:59:39.703Z,87.06
2018-01-28T10:00:40.141Z,87.09
2018-01-28T10:01:39.739Z,87.13
2018-01-28T10:02:40.042Z,87.34
2018-01-28T10:03:39.580Z,87.32
2018-01-28T10:04:40.226Z,87.09
2018-01-28T10:05:39.680Z,87.06
2018-01-28T10:06:40.061Z,87.16
2018-01-28T10:07:40.662Z,87.12
2018-01-28T10:08:39.875Z,87.07
2018-01-28T10:09:40.207Z,87.3
2018-01-28T10:10:40.449Z,87.47
2018-01-28T10:11:39.822Z,87.24
2018-01-28T10:12:39.644Z,87.2
2018-01-28T10:13:40.656Z,87.3
2018-01-28T10:14:39.894Z,87.33
2018-01-28T10:15:40.326Z,87.39
2018-01-28T10:16:39.944Z,87.47
2018-01-28T10:17:39.651Z,87.49
2018-01-28T10:18:40.592Z,87.48
2018-01-28T10:19:40.248Z,87.52
2018-01-28T10:20:39.554Z,87.59
2018-01-28T10:21:39.874Z,87.64
2018-01-28T10:22:39.816Z,87.61
2018-01-28T10:23:41.083Z,87.82
2018-01-28T10:24:40.444Z,87.86
2018-01-28T10:25:40.473Z,87.82
2018-01-28T10:26:40.411Z,87.94
2018-01-28T10:27:40.179Z,88.13
2018-01-28T10:28:40.075Z,87.9
2018-01-28T10:29:39.390Z,87.88
2018-01-28T10:30:39.115Z,87.9
2018-01-28T10:31:39.177Z,87.7
2018-01-28T10:32:39.376Z,87.76
2018-01-28T10:33:39.088Z,87.72
2018-01-28T10:34:39.361Z,87.71
2018-01-28T10:35:39.263Z,87.82
2018-01-28T10:36:39.245Z,87.9
2018-01-28T10:37:39.161Z,88
2018-01-28T10:38:39.349Z,88.07
2018-01-28T10:39:39.350Z,88.01
2018-01-28T10:40:39.369Z,87.86
2018-01-28T10:41:39.409Z,87.96
2018-01-28T10:42:39.160Z,88.06
2018-01-28T10:43:39.412Z,87.93
2018-01-28T10:44:39.428Z,87.9
2018-01-28T10:45:39.558Z,88.09
2018-01-28T10:46:39.387Z,88.23
2018-01-28T10:47:39.410Z,88.21
2018-01-28T10:48:39.438Z,88.06
2018-01-28T10:49:39.370Z,88.04
2018-01-28T10:50:39.171Z,88.2
2018-01-28T10:51:39.317Z,88.18
2018-01-28T10:52:39.411Z,88.18
2018-01-28T10:53:39.192Z,88.41
2018-01-28T10:54:39.428Z,87.99
2018-01-28T10:55:39.400Z,88.2
2018-01-28T10:56:39.379Z,88.35
2018-01-28T10:57:39.471Z,88.38
2018-01-28T10:58:45.607Z,88.3
2018-01-28T10:59:45.868Z,88.25
2018-01-28T11:00:42.490Z,88.4
2018-01-28T11:01:40.682Z,88.16
2018-01-28T11:02:42.071Z,88.36
2018-01-28T11:03:41.540Z,88.3
2018-01-28T11:04:41.831Z,88.5
2018-01-28T11:05:43.174Z,88.28
2018-01-28T11:06:42.283Z,88.47
2018-01-28T11:07:41.838Z,88.22
2018-01-28T11:08:43.029Z,88.17
2018-01-28T11:09:39.997Z,88.44
2018-01-28T11:10:42.753Z,88.42
2018-01-28T11:11:42.000Z,88.31
2018-01-28T11:12:39.754Z,88.33
2018-01-28T11:13:40.101Z,88.51
2018-01-28T11:14:42.210Z,88.33
2018-01-28T11:15:40.063Z,88.27
2018-01-28T11:16:42.150Z,88.62
2018-01-28T11:17:39.565Z,88.47
2018-01-28T11:18:39.338Z,88.44
2018-01-28T11:19:39.345Z,88.55
2018-01-28T11:20:39.491Z,88.47
2018-01-28T11:21:39.471Z,88.58
2018-01-28T11:22:39.301Z,88.5
2018-01-28T11:23:39.379Z,88.33
2018-01-28T11:24:39.796Z,88.43
2018-01-28T11:25:40.334Z,88.32
2018-01-28T11:26:39.819Z,87.78
2018-01-28T11:27:39.903Z,88.02
2018-01-28T11:28:39.726Z,87.75
2018-01-28T11:29:39.917Z,87.61
2018-01-28T11:30:39.989Z,87.76
2018-01-28T11:31:58.565Z,87.72
2018-01-28T11:32:50.999Z,87.98
2018-01-28T11:33:40.081Z,88.25
2018-01-28T11:34:39.781Z,88.12
2018-01-28T11:35:39.932Z,88.08
2018-01-28T11:36:40.102Z,87.85
2018-01-28T11:37:39.981Z,87.97
2018-01-28T11:38:39.748Z,88.12
2018-01-28T11:39:40.017Z,88.18
2018-01-28T11:40:39.937Z,88.29
2018-01-28T11:41:39.955Z,88.46
2018-01-28T11:42:40.017Z,88.31
2018-01-28T11:43:39.993Z,88.37
2018-01-28T11:44:40.078Z,88.5
2018-01-28T11:45:39.832Z,88.38
2018-01-28T11:46:39.929Z,88.23
2018-01-28T11:47:39.840Z,88.4
2018-01-28T11:48:39.901Z,88.41
2018-01-28T11:49:39.784Z,88.32
2018-01-28T11:50:39.847Z,88.2
2018-01-28T11:51:40.229Z,88.39
2018-01-28T11:52:39.763Z,88.27
2018-01-28T11:53:39.922Z,88.36
2018-01-28T11:54:40.114Z,88.33
2018-01-28T11:55:38.923Z,88.35
2018-01-28T11:56:39.074Z,88.4
2018-01-28T11:57:39.092Z,88.51
2018-01-28T11:58:38.923Z,88.29
2018-01-28T11:59:38.880Z,88.15
2018-01-28T12:00:38.970Z,88.19
2018-01-28T12:01:39.132Z,88.5
2018-01-28T12:02:39.012Z,88.48
2018-01-28T12:03:38.918Z,88.43
2018-01-28T12:04:39.160Z,88.45
2018-01-28T12:05:38.894Z,88.53
2018-01-28T12:06:38.961Z,88.77
2018-01-28T12:07:39.029Z,88.52
2018-01-28T12:08:39.079Z,88.54
2018-01-28T12:09:39.045Z,88.45
2018-01-28T12:10:39.131Z,88.6
2018-01-28T12:11:39.097Z,88.65
2018-01-28T12:12:39.310Z,88.71
2018-01-28T12:13:39.446Z,88.73
2018-01-28T12:14:39.402Z,88.77
2018-01-28T12:15:39.301Z,88.71
2018-01-28T12:16:39.141Z,88.8
2018-01-28T12:17:39.125Z,88.67
2018-01-28T12:18:39.337Z,88.57
2018-01-28T12:19:39.194Z,88.74
2018-01-28T12:20:39.809Z,88.68
2018-01-28T12:21:39.142Z,88.64
2018-01-28T12:22:39.173Z,88.7
2018-01-28T12:23:39.222Z,88.77
2018-01-28T12:24:40.023Z,88.89
2018-01-28T12:25:42.673Z,88.82
2018-01-28T12:26:39.881Z,88.64
2018-01-28T12:27:41.931Z,88.65
2018-01-28T12:28:40.339Z,88.63
2018-01-28T12:29:39.265Z,88.74
2018-01-28T12:30:39.619Z,88.77
2018-01-28T12:31:41.607Z,88.78
2018-01-28T12:32:39.327Z,88.87
2018-01-28T12:33:40.291Z,89.08
2018-01-28T12:34:43.269Z,88.86
2018-01-28T12:35:43.566Z,88.94
2018-01-28T12:36:39.633Z,89.08
2018-01-28T12:37:44.110Z,89.08
2018-01-28T12:38:39.136Z,89.05
2018-01-28T12:39:43.136Z,89
2018-01-28T12:40:39.090Z,89.05
2018-01-28T12:41:39.224Z,89.11
2018-01-28T12:42:39.013Z,89.03
2018-01-28T12:43:39.526Z,89.14
2018-01-28T12:44:38.935Z,89.07
2018-01-28T12:45:38.901Z,89.1
2018-01-28T12:46:38.957Z,89.14
2018-01-28T12:47:39.183Z,89.27
2018-01-28T12:48:39.156Z,89.29
2018-01-28T12:49:39.107Z,89.27
2018-01-28T12:50:39.130Z,89.37
2018-01-28T12:51:39.057Z,89.27
2018-01-28T12:52:38.991Z,89.45
2018-01-28T12:53:38.881Z,89.51
2018-01-28T12:54:42.249Z,89.53
2018-01-28T12:55:39.245Z,89.72
2018-01-28T12:56:38.814Z,89.68